Millenium Air

Millenium Air Since 1998



 METAR AND TAF INFORMATION
METAR FOR LATI
ADDS - METARS form results

(0036 UTC 27 February 2021)
Data provider http://aviationweather.gov/metar/data/
 
METAR text: LATI 270020Z 00000KT 6000 NSC 05/04 Q1023 NOSIG
Conditions at: LATI (TIRANA , AL) observed 0020 UTC 27 February 2021
Temperature: 5.0°C (41°F)
Dewpoint: 4.0°C (39°F) [RH = 93%]
Pressure (altimeter): 30.21 inches Hg (1023.0 mb)
Winds: calm
Visibility: 4 miles ( 6 km)
Ceiling: at least 12,000 feet AGL
Clouds: sky clear below 12,000 feet AGL
Weather: no significant weather observed at this time

METAR text: LATI 262350Z 00000KT 7000 NSC 05/04 Q1023 NOSIG
Conditions at: LATI (TIRANA , AL) observed 2350 UTC 26 February 2021
Temperature: 5.0°C (41°F)
Dewpoint: 4.0°C (39°F) [RH = 93%]
Pressure (altimeter): 30.21 inches Hg (1023.0 mb)
Winds: calm
Visibility: 4 miles ( 7 km)
Ceiling: at least 12,000 feet AGL
Clouds: sky clear below 12,000 feet AGL
Weather: no significant weather observed at this time

Forecast for: LATI (TIRANA , AL)
Text: TAF LATI 262300Z 2700/2724 VRB03KT CAVOK TX20/2712Z TN03/2705Z
Forecast period: 0000 UTC 27 February 2021 to 0000 UTC 28 February 2021
Forecast type: FROM: standard forecast or significant change
Winds: variable direction winds at 3 MPH (3 knots; 1.5 m/s)
Visibility: 6 or more miles (10+ km)
Ceiling: unknown
Clouds: missing
Weather: no significant weather forecast for this period
Text: PROB30
Forecast period: 0100 to 0600 UTC 27 February 2021
Forecast type: TEMPORARY: The following changes expected for less than half the time period
Visibility: 1.86 miles (2.99 km)
Ceiling: 2000 feet AGL
Clouds: broken clouds at 2000 feet AGL
Weather: BR  (mist)
Text: TEMPO 2701/2706 3000 BR BKN020
Forecast period: 1100 to 1600 UTC 27 February 2021
Forecast type: TEMPORARY: The following changes expected for less than half the time period
Winds: from the NNW (340 degrees) at 12 MPH (10 knots; 5.1 m/s)
Visibility: missing
Ceiling: unknown
Clouds: missing
Weather: no significant weather forecast for this period

 AIRPORT MAP

 RUNWAY INFORMATION
Runway 18 Runway length 8971 ft Runway width 148 ft
Runway elevation 109 ft Runway displaced threshold 0 ft Runway heading 174
Runway 36 Runway length 8971 ft Runway width 148 ft
Runway elevation 126 ft Runway displaced threshold 0 ft Runway heading 354

 AIRPORT FREQUENCIES
Type ACC Name ACC Frequency 127.5 MHZ
Type APP Name APP Frequency 133.15 MHZ
Type TWR Name TWR Frequency 122.5 MHZ

 AIRPORT NEAR NAVIGATION AIDS
Type NDB Name Tirana Frequency 290 KHZ
Type VOR-DME Name Tirana Frequency 117700 KHZ